createdAt,value
2019-02-24T00:00:03.333Z,0
2019-02-24T00:01:03.738Z,0
2019-02-24T00:02:04.715Z,0
2019-02-24T00:03:05.135Z,0
2019-02-24T00:04:06.098Z,0
2019-02-24T00:05:06.780Z,0
2019-02-24T00:06:07.184Z,0
2019-02-24T00:07:08.419Z,0
2019-02-24T00:08:09.128Z,0
2019-02-24T00:09:09.839Z,0
2019-02-24T00:10:10.370Z,0
2019-02-24T00:11:12.467Z,0
2019-02-24T00:12:13.434Z,0
2019-02-24T00:13:14.436Z,0
2019-02-24T00:14:15.124Z,0
2019-02-24T00:15:15.529Z,0
2019-02-24T00:16:15.978Z,0
2019-02-24T00:17:16.108Z,0
2019-02-24T00:18:17.063Z,0
2019-02-24T00:19:18.046Z,0
2019-02-24T00:20:18.848Z,0
2019-02-24T00:21:19.531Z,0
2019-02-24T00:22:20.210Z,0
2019-02-24T00:23:20.340Z,0
2019-02-24T00:24:21.025Z,0
2019-02-24T00:25:21.153Z,0
2019-02-24T00:26:22.557Z,0
2019-02-24T00:27:23.241Z,0
2019-02-24T00:28:23.649Z,0
2019-02-24T00:29:24.807Z,0
2019-02-24T00:30:25.901Z,0
2019-02-24T00:31:26.305Z,0
2019-02-24T00:32:26.987Z,0
2019-02-24T00:33:27.946Z,0
2019-02-24T00:34:28.909Z,0
2019-02-24T00:35:29.595Z,0
2019-02-24T00:36:30.278Z,0
2019-02-24T00:37:30.405Z,0
2019-02-24T00:38:31.810Z,0
2019-02-24T00:39:32.773Z,0
2019-02-24T00:40:33.426Z,0
2019-02-24T00:41:33.552Z,0
2019-02-24T00:42:35.794Z,0
2019-02-24T00:43:35.205Z,0
2019-02-24T00:44:35.884Z,0
2019-02-24T00:45:36.285Z,0
2019-02-24T00:46:36.969Z,0
2019-02-24T00:47:37.377Z,0
2019-02-24T00:48:37.505Z,0
2019-02-24T00:49:38.912Z,0
2019-02-24T00:50:39.190Z,0
2019-02-24T00:51:39.873Z,0
2019-02-24T00:52:40.025Z,0
2019-02-24T00:53:41.426Z,0
2019-02-24T00:54:41.831Z,0
2019-02-24T00:55:42.241Z,0
2019-02-24T00:56:43.365Z,0
2019-02-24T00:57:45.329Z,0
2019-02-24T00:58:45.733Z,0
2019-02-24T00:59:46.473Z,0
2019-02-24T01:00:48.131Z,0
2019-02-24T01:01:48.536Z,0
2019-02-24T01:02:48.664Z,0
2019-02-24T01:03:50.349Z,0
2019-02-24T01:04:50.473Z,0
2019-02-24T01:05:51.154Z,0
2019-02-24T01:06:51.296Z,0
2019-02-24T01:07:52.258Z,0
2019-02-24T01:08:52.661Z,0
2019-02-24T01:09:52.791Z,0
2019-02-24T01:10:53.327Z,0
2019-02-24T01:11:54.278Z,0
2019-02-24T01:12:54.405Z,0
2019-02-24T01:13:56.095Z,0
2019-02-24T01:14:56.779Z,0
2019-02-24T01:15:57.460Z,0
2019-02-24T01:16:57.864Z,0
2019-02-24T01:17:58.825Z,0
2019-02-24T01:18:58.953Z,0
2019-02-24T01:20:00.638Z,0
2019-02-24T01:21:00.464Z,0
2019-02-24T01:22:01.592Z,0
2019-02-24T01:23:03.288Z,0
2019-02-24T01:24:03.452Z,0
2019-02-24T01:25:04.410Z,0
2019-02-24T01:26:04.814Z,0
2019-02-24T01:27:05.783Z,0
2019-02-24T01:28:06.471Z,0
2019-02-24T01:29:06.878Z,0
2019-02-24T01:30:07.559Z,0
2019-02-24T01:31:09.223Z,0
2019-02-24T01:32:09.352Z,0
2019-02-24T01:33:10.769Z,0
2019-02-24T01:34:11.171Z,0
2019-02-24T01:35:11.858Z,0
2019-02-24T01:36:12.541Z,0
2019-02-24T01:37:12.944Z,0
2019-02-24T01:38:13.350Z,0
2019-02-24T01:39:14.314Z,0
2019-02-24T01:40:15.277Z,0
2019-02-24T01:41:16.951Z,0
2019-02-24T01:42:16.355Z,0
2019-02-24T01:43:17.313Z,0
2019-02-24T01:44:17.995Z,0
2019-02-24T01:45:19.233Z,0
2019-02-24T01:46:18.639Z,0
2019-02-24T01:47:20.321Z,0
2019-02-24T01:48:22.729Z,0
2019-02-24T01:49:21.424Z,0
2019-02-24T01:50:21.825Z,0
2019-02-24T01:51:23.764Z,0
2019-02-24T01:52:22.889Z,0
2019-02-24T01:53:24.571Z,0
2019-02-24T01:54:25.346Z,0
2019-02-24T01:55:25.760Z,0
2019-02-24T01:56:26.164Z,0
2019-02-24T01:57:27.125Z,0
2019-02-24T01:58:39.554Z,0
2019-02-24T01:59:40.377Z,0
2019-02-24T02:00:41.355Z,0
2019-02-24T02:01:41.073Z,0
2019-02-24T02:02:42.478Z,0
2019-02-24T02:03:42.886Z,0
2019-02-24T02:04:43.569Z,0
2019-02-24T02:05:45.085Z,0
2019-02-24T02:06:44.525Z,0
2019-02-24T02:07:44.929Z,0
2019-02-24T02:08:45.894Z,0
2019-02-24T02:09:46.491Z,0
2019-02-24T02:10:48.447Z,0
2019-02-24T02:11:48.853Z,0
2019-02-24T02:12:49.534Z,0
2019-02-24T02:13:50.271Z,0
2019-02-24T02:14:50.951Z,0
2019-02-24T02:15:52.074Z,0
2019-02-24T02:16:52.477Z,0
2019-02-24T02:17:53.644Z,0
2019-02-24T02:18:54.765Z,0
2019-02-24T02:19:55.570Z,0
2019-02-24T02:20:55.971Z,0
2019-02-24T02:21:56.099Z,0
2019-02-24T02:22:57.345Z,0
2019-02-24T02:23:57.513Z,0
2019-02-24T02:24:58.649Z,0
2019-02-24T02:25:59.777Z,0
2019-02-24T02:27:01.460Z,0
2019-02-24T02:28:02.152Z,0
2019-02-24T02:29:02.554Z,0
2019-02-24T02:30:04.328Z,0
2019-02-24T02:31:04.667Z,0
2019-02-24T02:32:05.649Z,0
2019-02-24T02:33:05.367Z,0
2019-02-24T02:34:06.601Z,0
2019-02-24T02:35:06.559Z,0
2019-02-24T02:36:06.967Z,0
2019-02-24T02:37:08.386Z,0
2019-02-24T02:38:09.911Z,0
2019-02-24T02:39:10.435Z,0
2019-02-24T02:40:10.522Z,0
2019-02-24T02:41:10.929Z,0
2019-02-24T02:42:11.623Z,0
2019-02-24T02:43:12.039Z,0
2019-02-24T02:44:12.721Z,0
2019-02-24T02:45:13.142Z,0
2019-02-24T02:46:14.106Z,0
2019-02-24T02:47:15.095Z,0
2019-02-24T02:48:15.780Z,0
2019-02-24T02:49:16.477Z,0
2019-02-24T02:50:18.436Z,0
2019-02-24T02:51:18.394Z,0
2019-02-24T02:52:19.115Z,0
2019-02-24T02:53:19.240Z,0
2019-02-24T02:54:20.484Z,0
2019-02-24T02:55:21.018Z,0
2019-02-24T02:56:21.575Z,0
2019-02-24T02:57:21.271Z,0
2019-02-24T02:58:23.788Z,0
2019-02-24T02:59:24.025Z,0
2019-02-24T03:00:24.954Z,0
2019-02-24T03:01:25.470Z,0
2019-02-24T03:02:26.631Z,0
2019-02-24T03:03:28.592Z,0
2019-02-24T03:04:28.007Z,0
2019-02-24T03:05:29.257Z,0
2019-02-24T03:06:29.669Z,0
2019-02-24T03:07:30.939Z,0
2019-02-24T03:08:31.068Z,0
2019-02-24T03:09:32.751Z,0
2019-02-24T03:10:34.417Z,0
2019-02-24T03:11:33.854Z,0
2019-02-24T03:12:35.858Z,0
2019-02-24T03:13:36.260Z,0
2019-02-24T03:14:37.516Z,0
2019-02-24T03:15:38.226Z,0
2019-02-24T03:16:38.933Z,0
2019-02-24T03:17:39.337Z,0
2019-02-24T03:18:40.043Z,0
2019-02-24T03:19:41.570Z,0
2019-02-24T03:20:41.238Z,0
2019-02-24T03:21:42.204Z,0
2019-02-24T03:22:42.626Z,0
2019-02-24T03:23:43.877Z,0
2019-02-24T03:24:44.120Z,0
2019-02-24T03:25:43.822Z,0
2019-02-24T03:26:44.832Z,0
2019-02-24T03:27:45.118Z,0
2019-02-24T03:28:45.927Z,0
2019-02-24T03:29:45.891Z,0
2019-02-24T03:30:47.577Z,0
2019-02-24T03:31:48.954Z,0
2019-02-24T03:32:50.082Z,0
2019-02-24T03:33:51.542Z,0
2019-02-24T03:34:50.513Z,0
2019-02-24T03:35:52.087Z,0
2019-02-24T03:36:51.493Z,0
2019-02-24T03:37:51.900Z,0
2019-02-24T03:38:53.149Z,0
2019-02-24T03:39:53.389Z,0
2019-02-24T03:40:54.056Z,0
2019-02-24T03:41:54.806Z,0
2019-02-24T03:42:56.043Z,0
2019-02-24T03:43:56.726Z,0
2019-02-24T03:44:58.241Z,0
2019-02-24T03:45:57.370Z,0
2019-02-24T03:46:58.777Z,0
2019-02-24T03:47:59.464Z,0
2019-02-24T03:49:00.203Z,0
2019-02-24T03:50:00.791Z,0
2019-02-24T03:51:01.758Z,0
2019-02-24T03:52:02.753Z,0
2019-02-24T03:53:04.278Z,0
2019-02-24T03:54:04.249Z,0
2019-02-24T03:55:06.318Z,0
2019-02-24T03:56:06.572Z,0
2019-02-24T03:57:07.822Z,0
2019-02-24T03:58:07.784Z,0
2019-02-24T03:59:21.040Z,0
2019-02-24T04:00:21.276Z,0
2019-02-24T04:01:21.993Z,0
2019-02-24T04:02:23.236Z,0
2019-02-24T04:03:23.515Z,0
2019-02-24T04:04:24.473Z,0
2019-02-24T04:05:25.158Z,0
2019-02-24T04:06:25.932Z,0
2019-02-24T04:07:26.367Z,0
2019-02-24T04:08:27.608Z,0
2019-02-24T04:09:28.572Z,0
2019-02-24T04:10:28.675Z,0
2019-02-24T04:11:29.658Z,0
2019-02-24T04:12:30.620Z,0
2019-02-24T04:13:31.597Z,0
2019-02-24T04:14:32.287Z,0
2019-02-24T04:15:32.990Z,0
2019-02-24T04:16:33.681Z,0
2019-02-24T04:17:34.693Z,0
2019-02-24T04:18:35.102Z,0
2019-02-24T04:19:37.622Z,0
2019-02-24T04:20:37.152Z,0
2019-02-24T04:21:38.554Z,0
2019-02-24T04:22:40.072Z,0
2019-02-24T04:23:40.479Z,0
2019-02-24T04:24:41.459Z,0
2019-02-24T04:25:41.860Z,0
2019-02-24T04:26:42.542Z,0
2019-02-24T04:27:42.950Z,0
2019-02-24T04:28:43.913Z,0
2019-02-24T04:29:45.150Z,0
2019-02-24T04:30:45.595Z,0
2019-02-24T04:31:46.276Z,0
2019-02-24T04:32:46.685Z,0
2019-02-24T04:33:47.982Z,0
2019-02-24T04:34:48.973Z,0
2019-02-24T04:35:49.980Z,0
2019-02-24T04:36:50.167Z,0
2019-02-24T04:37:50.846Z,0
2019-02-24T04:38:51.256Z,0
2019-02-24T04:39:52.249Z,0
2019-02-24T04:40:52.362Z,0
2019-02-24T04:41:53.599Z,0
2019-02-24T04:42:53.559Z,0
2019-02-24T04:43:54.249Z,0
2019-02-24T04:44:55.279Z,0
2019-02-24T04:45:55.684Z,0
2019-02-24T04:46:56.088Z,0
2019-02-24T04:47:57.335Z,0
2019-02-24T04:48:58.319Z,0
2019-02-24T04:49:58.720Z,0
2019-02-24T04:50:59.257Z,0
2019-02-24T04:52:00.546Z,0
2019-02-24T04:53:01.227Z,0
2019-02-24T04:54:01.355Z,0
2019-02-24T04:55:02.601Z,0
2019-02-24T04:56:03.595Z,0
2019-02-24T04:57:03.650Z,0
2019-02-24T04:58:04.346Z,0
2019-02-24T04:59:05.029Z,0
2019-02-24T05:00:05.989Z,0
2019-02-24T05:01:07.664Z,0
2019-02-24T05:02:08.671Z,0
2019-02-24T05:03:08.691Z,0
2019-02-24T05:04:09.929Z,0
2019-02-24T05:05:09.962Z,0
2019-02-24T05:06:11.280Z,0
2019-02-24T05:07:12.030Z,0
2019-02-24T05:08:13.013Z,0
2019-02-24T05:09:13.813Z,0
2019-02-24T05:10:14.329Z,0
2019-02-24T05:11:14.160Z,0
2019-02-24T05:12:15.124Z,0
2019-02-24T05:13:16.655Z,0
2019-02-24T05:14:16.620Z,0
2019-02-24T05:15:17.582Z,0
2019-02-24T05:16:17.603Z,0
2019-02-24T05:17:18.846Z,0
2019-02-24T05:18:19.529Z,0
2019-02-24T05:19:20.216Z,0
2019-02-24T05:20:22.175Z,0
2019-02-24T05:21:22.620Z,0
2019-02-24T05:22:23.861Z,0
2019-02-24T05:23:24.881Z,0
2019-02-24T05:24:25.285Z,0
2019-02-24T05:25:26.795Z,0
2019-02-24T05:26:25.922Z,0
2019-02-24T05:27:27.604Z,0
2019-02-24T05:28:28.309Z,0
2019-02-24T05:29:29.860Z,0
2019-02-24T05:30:29.820Z,0
2019-02-24T05:31:31.225Z,0
2019-02-24T05:32:31.629Z,0
2019-02-24T05:33:33.596Z,0
2019-02-24T05:34:34.834Z,0
2019-02-24T05:35:34.795Z,0
2019-02-24T05:36:35.201Z,0
2019-02-24T05:37:35.882Z,0
2019-02-24T05:38:36.578Z,0
2019-02-24T05:39:38.103Z,0
2019-02-24T05:40:37.512Z,0
2019-02-24T05:41:39.177Z,0
2019-02-24T05:42:38.858Z,0
2019-02-24T05:43:40.415Z,0
2019-02-24T05:44:40.149Z,0
2019-02-24T05:45:41.387Z,0
2019-02-24T05:46:41.795Z,0
2019-02-24T05:47:43.047Z,0
2019-02-24T05:48:44.571Z,0
2019-02-24T05:49:44.013Z,0
2019-02-24T05:50:45.976Z,0
2019-02-24T05:51:46.059Z,0
2019-02-24T05:52:47.315Z,0
2019-02-24T05:53:47.869Z,0
2019-02-24T05:54:48.557Z,0
2019-02-24T05:55:49.299Z,0
2019-02-24T05:56:50.000Z,0
2019-02-24T05:57:50.694Z,0
2019-02-24T05:58:51.105Z,0
2019-02-24T06:00:04.450Z,0
2019-02-24T06:01:04.003Z,5.63
2019-02-24T06:02:05.242Z,5.63
2019-02-24T06:03:06.246Z,5.63
2019-02-24T06:04:07.214Z,5.63
2019-02-24T06:05:08.181Z,5.63
2019-02-24T06:06:08.596Z,5.63
2019-02-24T06:07:09.005Z,11.25
2019-02-24T06:08:10.724Z,11.25
2019-02-24T06:09:11.135Z,11.25
2019-02-24T06:10:11.578Z,11.25
2019-02-24T06:11:13.509Z,16.88
2019-02-24T06:12:13.925Z,16.88
2019-02-24T06:13:14.915Z,16.88
2019-02-24T06:14:15.913Z,16.88
2019-02-24T06:15:16.875Z,22.5
2019-02-24T06:16:17.847Z,22.5
2019-02-24T06:17:18.170Z,22.5
2019-02-24T06:18:19.689Z,22.5
2019-02-24T06:19:20.372Z,28.13
2019-02-24T06:20:20.782Z,28.13
2019-02-24T06:21:22.164Z,28.13
2019-02-24T06:22:22.850Z,33.75
2019-02-24T06:23:23.534Z,33.75
2019-02-24T06:24:24.269Z,33.75
2019-02-24T06:25:26.119Z,39.38
2019-02-24T06:26:25.883Z,45
2019-02-24T06:27:26.318Z,101.25
2019-02-24T06:28:28.357Z,163.13
2019-02-24T06:29:29.053Z,157.5
2019-02-24T06:30:30.574Z,185.63
2019-02-24T06:31:30.241Z,157.5
2019-02-24T06:32:30.934Z,118.13
2019-02-24T06:33:32.169Z,78.75
2019-02-24T06:34:32.861Z,84.38
2019-02-24T06:35:33.276Z,106.88
2019-02-24T06:36:33.405Z,112.5
2019-02-24T06:37:35.373Z,163.13
2019-02-24T06:38:36.355Z,151.88
2019-02-24T06:39:37.043Z,151.88
2019-02-24T06:40:38.564Z,180
2019-02-24T06:41:39.537Z,140.63
2019-02-24T06:42:40.527Z,106.88
2019-02-24T06:43:40.948Z,168.75
2019-02-24T06:44:41.078Z,225
2019-02-24T06:45:42.767Z,146.25
2019-02-24T06:46:43.459Z,118.13
2019-02-24T06:47:44.423Z,146.25
2019-02-24T06:48:45.448Z,168.75
2019-02-24T06:49:46.140Z,196.88
2019-02-24T06:50:47.554Z,270
2019-02-24T06:51:48.239Z,225
2019-02-24T06:52:48.691Z,174.38
2019-02-24T06:53:49.097Z,157.5
2019-02-24T06:54:49.230Z,191.25
2019-02-24T06:55:51.194Z,230.63
2019-02-24T06:56:51.605Z,258.75
2019-02-24T06:57:51.742Z,348.75
2019-02-24T06:58:53.149Z,331.88
2019-02-24T06:59:53.559Z,281.25
2019-02-24T07:00:54.691Z,213.75
2019-02-24T07:01:56.101Z,208.13
2019-02-24T07:02:56.792Z,365.63
2019-02-24T07:03:57.483Z,489.38
2019-02-24T07:04:57.894Z,528.75
2019-02-24T07:05:58.619Z,416.25
2019-02-24T07:06:59.328Z,236.25
2019-02-24T07:08:00.017Z,135
2019-02-24T07:09:01.725Z,208.13
2019-02-24T07:10:02.577Z,315
2019-02-24T07:11:03.832Z,421.88
2019-02-24T07:12:03.260Z,438.75
2019-02-24T07:13:03.947Z,286.88
2019-02-24T07:14:03.911Z,140.63
2019-02-24T07:15:04.598Z,135
2019-02-24T07:16:05.847Z,135
2019-02-24T07:17:05.336Z,202.5
2019-02-24T07:18:06.024Z,326.25
2019-02-24T07:19:06.711Z,360
2019-02-24T07:20:07.699Z,230.63
2019-02-24T07:21:08.665Z,151.88
2019-02-24T07:22:08.544Z,247.5
2019-02-24T07:23:08.678Z,455.63
2019-02-24T07:24:09.655Z,590.63
2019-02-24T07:25:10.353Z,855
2019-02-24T07:26:10.765Z,1102.5
2019-02-24T07:27:12.733Z,1029.38
2019-02-24T07:28:13.708Z,1046.25
2019-02-24T07:29:14.432Z,1057.5
2019-02-24T07:30:26.610Z,1125
2019-02-24T07:31:27.433Z,1423.13
2019-02-24T07:32:28.405Z,1456.88
2019-02-24T07:33:29.390Z,1411.88
2019-02-24T07:34:29.679Z,1631.25
2019-02-24T07:35:30.139Z,1580.63
2019-02-24T07:36:31.113Z,1541.25
2019-02-24T07:37:32.082Z,1096.88
2019-02-24T07:38:32.794Z,826.88
2019-02-24T07:39:33.210Z,804.38
2019-02-24T07:40:33.354Z,489.38
2019-02-24T07:41:34.193Z,253.13
2019-02-24T07:42:34.617Z,213.75
2019-02-24T07:43:35.303Z,241.88
2019-02-24T07:44:36.552Z,281.25
2019-02-24T07:45:37.556Z,461.25
2019-02-24T07:46:37.969Z,517.5
2019-02-24T07:47:38.425Z,511.88
2019-02-24T07:48:38.839Z,455.63
2019-02-24T07:49:39.534Z,444.38
2019-02-24T07:50:39.674Z,393.75
2019-02-24T07:51:40.886Z,270
2019-02-24T07:52:41.298Z,315
2019-02-24T07:53:41.714Z,433.13
2019-02-24T07:54:43.130Z,562.5
2019-02-24T07:55:43.262Z,742.5
2019-02-24T07:56:43.692Z,708.75
2019-02-24T07:57:45.105Z,686.25
2019-02-24T07:58:46.080Z,781.88
2019-02-24T07:59:46.217Z,945
2019-02-24T08:00:47.916Z,1293.75
2019-02-24T08:01:48.629Z,1552.5
2019-02-24T08:02:49.041Z,1321.88
2019-02-24T08:03:49.778Z,1305
2019-02-24T08:04:50.196Z,1237.5
2019-02-24T08:05:51.442Z,900
2019-02-24T08:06:52.133Z,461.25
2019-02-24T08:07:52.560Z,500.63
2019-02-24T08:08:54.085Z,545.63
2019-02-24T08:09:54.503Z,534.38
2019-02-24T08:10:54.641Z,832.5
2019-02-24T08:11:55.205Z,1395
2019-02-24T08:12:55.621Z,1569.38
2019-02-24T08:13:56.038Z,1237.5
2019-02-24T08:14:56.455Z,798.75
2019-02-24T08:15:57.176Z,495
2019-02-24T08:16:57.873Z,562.5
2019-02-24T08:17:58.575Z,624.38
2019-02-24T08:18:58.991Z,478.13
2019-02-24T08:20:00.018Z,641.25
2019-02-24T08:21:01.925Z,697.5
2019-02-24T08:22:00.905Z,556.88
2019-02-24T08:23:01.388Z,720
2019-02-24T08:24:02.130Z,866.25
2019-02-24T08:25:03.109Z,1113.75
2019-02-24T08:26:03.253Z,1096.88
2019-02-24T08:27:04.945Z,748.13
2019-02-24T08:28:05.639Z,708.75
2019-02-24T08:29:06.333Z,956.25
2019-02-24T08:30:06.750Z,1248.75
2019-02-24T08:31:08.446Z,1496.25
2019-02-24T08:32:09.267Z,1721.25
2019-02-24T08:33:11.081Z,1873.13
2019-02-24T08:34:10.805Z,1738.13
2019-02-24T08:35:10.947Z,1338.75
2019-02-24T08:36:11.985Z,1383.75
2019-02-24T08:37:12.407Z,1361.25
2019-02-24T08:38:12.821Z,765
2019-02-24T08:39:14.073Z,286.88
2019-02-24T08:40:14.221Z,270
2019-02-24T08:41:15.199Z,270
2019-02-24T08:42:15.465Z,365.63
2019-02-24T08:43:16.437Z,928.13
2019-02-24T08:44:17.136Z,1681.88
2019-02-24T08:45:17.554Z,2019.38
2019-02-24T08:46:17.694Z,1653.75
2019-02-24T08:47:19.124Z,1361.25
2019-02-24T08:48:21.362Z,1693.13
2019-02-24T08:49:21.784Z,2064.38
2019-02-24T08:50:22.769Z,2154.38
2019-02-24T08:51:25.713Z,2261.25
2019-02-24T08:52:26.836Z,2238.75
2019-02-24T08:53:27.534Z,2373.75
2019-02-24T08:54:27.958Z,2514.38
2019-02-24T08:55:28.099Z,2553.75
2019-02-24T08:56:28.521Z,2638.13
2019-02-24T08:57:29.942Z,2671.88
2019-02-24T08:58:30.088Z,2486.25
2019-02-24T08:59:30.534Z,2491.88
2019-02-24T09:00:31.689Z,2497.5
2019-02-24T09:01:33.405Z,2593.13
2019-02-24T09:02:33.743Z,2621.25
2019-02-24T09:03:35.165Z,2441.25
2019-02-24T09:04:35.865Z,2362.5
2019-02-24T09:05:36.295Z,2503.13
2019-02-24T09:06:37.276Z,2441.25
2019-02-24T09:07:36.705Z,2396.25
2019-02-24T09:08:38.132Z,2525.63
2019-02-24T09:09:39.111Z,2385
2019-02-24T09:10:39.816Z,2289.38
2019-02-24T09:11:40.529Z,2205
2019-02-24T09:12:41.358Z,2452.5
2019-02-24T09:13:41.785Z,2570.63
2019-02-24T09:14:42.935Z,2401.88
2019-02-24T09:15:44.932Z,1507.5
2019-02-24T09:16:44.545Z,596.25
2019-02-24T09:17:45.274Z,1051.88
2019-02-24T09:18:46.268Z,2193.75
2019-02-24T09:19:46.989Z,1423.13
2019-02-24T09:20:47.418Z,421.88
2019-02-24T09:21:48.402Z,376.88
2019-02-24T09:22:50.087Z,416.25
2019-02-24T09:23:51.075Z,652.5
2019-02-24T09:24:51.496Z,562.5
2019-02-24T09:25:52.753Z,1395
2019-02-24T09:26:53.173Z,2311.88
2019-02-24T09:27:53.880Z,2356.88
2019-02-24T09:28:54.579Z,2396.25
2019-02-24T09:29:55.013Z,2491.88
2019-02-24T09:31:07.533Z,1985.63
2019-02-24T09:32:07.875Z,1878.75
2019-02-24T09:33:08.897Z,2160
2019-02-24T09:34:09.319Z,2390.63
2019-02-24T09:35:11.590Z,1940.63
2019-02-24T09:36:11.038Z,1996.88
2019-02-24T09:37:11.743Z,1816.88
2019-02-24T09:38:11.929Z,1535.63
2019-02-24T09:39:12.638Z,1743.75
2019-02-24T09:40:13.676Z,2030.63
2019-02-24T09:41:13.820Z,2188.13
2019-02-24T09:42:14.939Z,2289.38
2019-02-24T09:43:16.200Z,2126.25
2019-02-24T09:44:15.902Z,1935
2019-02-24T09:45:16.128Z,1788.75
2019-02-24T09:46:16.864Z,1867.5
2019-02-24T09:47:17.284Z,1468.13
2019-02-24T09:48:18.706Z,933.75
2019-02-24T09:49:19.183Z,736.88
2019-02-24T09:50:19.341Z,1406.25
2019-02-24T09:51:19.764Z,2295
2019-02-24T09:52:20.816Z,2053.13
2019-02-24T09:53:20.958Z,1456.88
2019-02-24T09:54:22.379Z,1361.25
2019-02-24T09:55:23.082Z,1248.75
2019-02-24T09:56:22.823Z,1051.88
2019-02-24T09:57:23.800Z,1226.25
2019-02-24T09:58:24.219Z,1119.38
2019-02-24T09:59:25.437Z,967.5
2019-02-24T10:00:26.144Z,945
2019-02-24T10:01:26.283Z,1051.88
2019-02-24T10:02:26.842Z,1074.38
2019-02-24T10:03:28.537Z,1198.13
2019-02-24T10:04:29.515Z,1158.75
2019-02-24T10:05:29.665Z,1175.63
2019-02-24T10:06:30.664Z,1108.13
2019-02-24T10:07:31.084Z,1029.38
2019-02-24T10:08:32.095Z,1102.5
2019-02-24T10:09:32.794Z,1265.63
2019-02-24T10:10:33.771Z,1518.75
2019-02-24T10:11:34.795Z,1125
2019-02-24T10:12:35.623Z,1282.5
2019-02-24T10:13:36.611Z,1023.75
2019-02-24T10:14:36.756Z,1940.63
2019-02-24T10:15:37.747Z,1676.25
2019-02-24T10:16:38.164Z,2036.25
2019-02-24T10:17:38.865Z,2362.5
2019-02-24T10:18:39.572Z,2081.25
2019-02-24T10:19:40.278Z,2126.25
2019-02-24T10:20:40.985Z,2761.88
2019-02-24T10:21:41.681Z,3150
2019-02-24T10:22:43.085Z,3060
2019-02-24T10:23:43.789Z,2902.5
2019-02-24T10:24:43.929Z,3200.63
2019-02-24T10:25:45.189Z,3172.5
2019-02-24T10:26:46.160Z,3189.38
2019-02-24T10:27:45.863Z,3206.25
2019-02-24T10:28:48.758Z,3172.5
2019-02-24T10:29:47.459Z,3200.63
2019-02-24T10:30:48.164Z,3211.88
2019-02-24T10:31:48.870Z,3403.13
2019-02-24T10:32:49.324Z,3566.25
2019-02-24T10:33:49.776Z,3729.38
2019-02-24T10:34:49.923Z,3785.63
2019-02-24T10:35:51.626Z,3301.88
2019-02-24T10:36:52.051Z,3465
2019-02-24T10:37:52.754Z,3155.63
2019-02-24T10:38:53.734Z,3234.38
2019-02-24T10:39:54.163Z,3099.38
2019-02-24T10:40:54.869Z,3217.5
2019-02-24T10:41:56.133Z,3285
2019-02-24T10:42:56.546Z,3363.75
2019-02-24T10:43:56.970Z,3380.63
2019-02-24T10:44:57.676Z,3442.5
2019-02-24T10:45:58.381Z,3150
2019-02-24T10:46:59.087Z,3363.75
2019-02-24T10:47:59.803Z,3346.88
2019-02-24T10:49:05.894Z,2542.5
2019-02-24T10:49:11.611Z,2615.63
2019-02-24T10:50:12.052Z,2941.88
2019-02-24T10:51:13.315Z,3358.13
2019-02-24T10:52:13.739Z,2193.75
2019-02-24T10:53:14.890Z,2908.13
2019-02-24T10:54:16.599Z,3318.75
2019-02-24T10:55:17.301Z,3453.75
2019-02-24T10:56:18.751Z,3532.5
2019-02-24T10:57:20.179Z,3532.5
2019-02-24T10:58:23.130Z,3391.88
2019-02-24T10:59:20.555Z,3138.75
2019-02-24T11:00:21.437Z,2992.5
2019-02-24T11:01:35.775Z,2981.25
2019-02-24T11:02:36.339Z,2958.75
2019-02-24T11:03:37.490Z,2953.13
2019-02-24T11:04:38.478Z,2863.13
2019-02-24T11:05:38.951Z,2452.5
2019-02-24T11:06:39.998Z,2283.75
2019-02-24T11:07:40.421Z,2379.38
2019-02-24T11:08:40.572Z,1496.25
2019-02-24T11:09:41.724Z,2143.13
2019-02-24T11:10:43.428Z,2103.75
2019-02-24T11:11:44.133Z,2126.25
2019-02-24T11:12:44.971Z,2075.63
2019-02-24T11:13:45.400Z,2193.75
2019-02-24T11:14:46.113Z,1816.88
2019-02-24T11:15:47.136Z,1372.5
2019-02-24T11:16:47.842Z,1158.75
2019-02-24T11:17:48.306Z,1209.38
2019-02-24T11:18:49.011Z,1186.88
2019-02-24T11:19:49.163Z,933.75
2019-02-24T11:20:49.594Z,855
2019-02-24T11:21:51.022Z,793.13
2019-02-24T11:22:51.880Z,776.25
2019-02-24T11:23:52.860Z,787.5
2019-02-24T11:24:54.127Z,753.75
2019-02-24T11:25:53.826Z,680.63
2019-02-24T11:26:54.523Z,630
2019-02-24T11:27:55.225Z,607.5
2019-02-24T11:28:55.941Z,590.63
2019-02-24T11:29:56.415Z,579.38
2019-02-24T11:30:57.115Z,573.75
2019-02-24T11:31:59.556Z,562.5
2019-02-24T11:32:58.947Z,562.5
2019-02-24T11:33:59.644Z,545.63
2019-02-24T11:35:00.091Z,534.38
2019-02-24T11:36:01.189Z,534.38
2019-02-24T11:37:01.608Z,523.13
2019-02-24T11:38:02.026Z,517.5
2019-02-24T11:39:02.445Z,517.5
2019-02-24T11:40:03.876Z,517.5
2019-02-24T11:41:04.572Z,523.13
2019-02-24T11:42:05.269Z,540
2019-02-24T11:43:06.117Z,556.88
2019-02-24T11:44:07.095Z,573.75
2019-02-24T11:45:07.814Z,607.5
2019-02-24T11:46:08.240Z,618.75
2019-02-24T11:47:09.216Z,624.38
2019-02-24T11:48:09.639Z,624.38
2019-02-24T11:49:10.778Z,646.88
2019-02-24T11:50:11.195Z,652.5
2019-02-24T11:51:12.184Z,669.38
2019-02-24T11:52:12.604Z,680.63
2019-02-24T11:53:13.761Z,691.88
2019-02-24T11:54:14.508Z,686.25
2019-02-24T11:55:14.680Z,686.25
2019-02-24T11:56:16.374Z,669.38
2019-02-24T11:57:17.073Z,658.13
2019-02-24T11:58:18.049Z,652.5
2019-02-24T11:59:18.499Z,658.13
2019-02-24T12:00:19.195Z,663.75
2019-02-24T12:01:19.618Z,686.25
2019-02-24T12:02:20.755Z,708.75
2019-02-24T12:03:22.151Z,708.75
2019-02-24T12:04:21.314Z,725.63
2019-02-24T12:05:22.458Z,731.25
2019-02-24T12:06:23.597Z,708.75
2019-02-24T12:07:24.736Z,714.38
2019-02-24T12:08:26.431Z,697.5
2019-02-24T12:09:26.889Z,675
2019-02-24T12:10:27.307Z,663.75
2019-02-24T12:11:28.731Z,658.13
2019-02-24T12:12:29.146Z,646.88
2019-02-24T12:13:30.257Z,663.75
2019-02-24T12:14:30.678Z,652.5
2019-02-24T12:15:31.094Z,663.75
2019-02-24T12:16:31.513Z,680.63
2019-02-24T12:17:31.935Z,720
2019-02-24T12:18:33.723Z,736.88
2019-02-24T12:19:34.418Z,725.63
2019-02-24T12:20:34.839Z,720
2019-02-24T12:21:36.096Z,720
2019-02-24T12:22:36.107Z,708.75
2019-02-24T12:23:36.693Z,708.75
2019-02-24T12:24:37.658Z,714.38
2019-02-24T12:25:38.077Z,697.5
2019-02-24T12:26:38.491Z,697.5
2019-02-24T12:27:39.511Z,714.38
2019-02-24T12:28:39.650Z,708.75
2019-02-24T12:29:41.343Z,703.13
2019-02-24T12:30:41.762Z,680.63
2019-02-24T12:31:41.907Z,658.13
2019-02-24T12:32:42.909Z,646.88
2019-02-24T12:33:43.587Z,641.25
2019-02-24T12:34:44.561Z,641.25
2019-02-24T12:35:45.809Z,635.63
2019-02-24T12:36:46.230Z,635.63
2019-02-24T12:37:46.373Z,618.75
2019-02-24T12:38:47.514Z,613.13
2019-02-24T12:39:48.483Z,573.75
2019-02-24T12:40:48.620Z,528.75
2019-02-24T12:41:50.090Z,506.25
2019-02-24T12:42:50.508Z,472.5
2019-02-24T12:43:51.393Z,461.25
2019-02-24T12:44:52.640Z,450
2019-02-24T12:45:52.336Z,444.38
2019-02-24T12:46:52.757Z,433.13
2019-02-24T12:47:54.183Z,427.5
2019-02-24T12:48:54.875Z,416.25
2019-02-24T12:50:07.920Z,427.5
2019-02-24T12:51:09.036Z,421.88
2019-02-24T12:52:09.453Z,427.5
2019-02-24T12:53:11.149Z,433.13
2019-02-24T12:54:11.569Z,444.38
2019-02-24T12:55:12.279Z,455.63
2019-02-24T12:56:15.689Z,466.88
2019-02-24T12:57:14.385Z,483.75
2019-02-24T12:58:15.085Z,489.38
2019-02-24T12:59:15.507Z,500.63
2019-02-24T13:00:16.757Z,517.5
2019-02-24T13:01:16.318Z,511.88
2019-02-24T13:02:17.291Z,523.13
2019-02-24T13:03:29.778Z,528.75
2019-02-24T13:04:31.635Z,534.38
2019-02-24T13:05:31.611Z,523.13
2019-02-24T13:06:32.307Z,511.88
2019-02-24T13:07:32.723Z,500.63
2019-02-24T13:08:34.146Z,483.75
2019-02-24T13:09:36.432Z,478.13
2019-02-24T13:10:37.421Z,466.88
2019-02-24T13:11:38.121Z,461.25
2019-02-24T13:12:38.822Z,455.63
2019-02-24T13:13:39.244Z,461.25
2019-02-24T13:14:40.372Z,444.38
2019-02-24T13:15:40.794Z,444.38
2019-02-24T13:16:41.551Z,438.75
2019-02-24T13:17:41.690Z,438.75
2019-02-24T13:18:43.111Z,438.75
2019-02-24T13:19:44.086Z,438.75
2019-02-24T13:20:44.226Z,444.38
2019-02-24T13:21:47.804Z,444.38
2019-02-24T13:22:46.497Z,450
2019-02-24T13:23:47.196Z,450
2019-02-24T13:24:48.612Z,461.25
2019-02-24T13:25:49.867Z,461.25
2019-02-24T13:26:49.864Z,450
2019-02-24T13:27:50.007Z,438.75
2019-02-24T13:28:53.350Z,421.88
2019-02-24T13:29:53.602Z,410.63
2019-02-24T13:30:53.575Z,393.75
2019-02-24T13:31:54.545Z,382.5
2019-02-24T13:32:54.683Z,371.25
2019-02-24T13:33:56.100Z,360
2019-02-24T13:34:56.646Z,365.63
2019-02-24T13:35:57.063Z,365.63
2019-02-24T13:36:58.033Z,376.88